sensor_id;sensor_type;location;lat;lon;timestamp;P1;durP1;ratioP1;P2;durP2;ratioP2
26690;SDS011;14307;51.718;8.938;2024-01-06T00:02:08;15.90;;;14.40;;
26690;SDS011;14307;51.718;8.938;2024-01-06T00:04:35;15.93;;;14.52;;
26690;SDS011;14307;51.718;8.938;2024-01-06T00:07:02;16.83;;;15.43;;
26690;SDS011;14307;51.718;8.938;2024-01-06T00:09:29;15.57;;;14.13;;
26690;SDS011;14307;51.718;8.938;2024-01-06T00:11:55;17.33;;;15.60;;
26690;SDS011;14307;51.718;8.938;2024-01-06T00:14:22;15.13;;;13.60;;
26690;SDS011;14307;51.718;8.938;2024-01-06T00:16:49;15.90;;;14.30;;
26690;SDS011;14307;51.718;8.938;2024-01-06T00:19:16;16.92;;;14.43;;
26690;SDS011;14307;51.718;8.938;2024-01-06T00:21:44;16.38;;;13.80;;
26690;SDS011;14307;51.718;8.938;2024-01-06T00:24:11;16.13;;;12.43;;
26690;SDS011;14307;51.718;8.938;2024-01-06T00:26:38;16.08;;;13.90;;
26690;SDS011;14307;51.718;8.938;2024-01-06T00:29:05;16.63;;;14.60;;
26690;SDS011;14307;51.718;8.938;2024-01-06T00:31:32;16.90;;;14.02;;
26690;SDS011;14307;51.718;8.938;2024-01-06T00:33:59;18.48;;;14.82;;
26690;SDS011;14307;51.718;8.938;2024-01-06T00:36:26;17.02;;;14.55;;
26690;SDS011;14307;51.718;8.938;2024-01-06T00:38:52;19.52;;;15.57;;
26690;SDS011;14307;51.718;8.938;2024-01-06T00:41:22;17.42;;;15.07;;
26690;SDS011;14307;51.718;8.938;2024-01-06T00:43:49;18.15;;;14.35;;
26690;SDS011;14307;51.718;8.938;2024-01-06T00:46:15;23.77;;;15.68;;
26690;SDS011;14307;51.718;8.938;2024-01-06T00:48:42;23.42;;;16.45;;
26690;SDS011;14307;51.718;8.938;2024-01-06T00:51:09;23.75;;;16.70;;
26690;SDS011;14307;51.718;8.938;2024-01-06T00:53:36;26.60;;;17.65;;
26690;SDS011;14307;51.718;8.938;2024-01-06T00:56:03;25.23;;;18.02;;
26690;SDS011;14307;51.718;8.938;2024-01-06T00:58:30;24.95;;;17.05;;
26690;SDS011;14307;51.718;8.938;2024-01-06T01:00:57;21.83;;;14.65;;
26690;SDS011;14307;51.718;8.938;2024-01-06T01:03:24;25.15;;;15.30;;
26690;SDS011;14307;51.718;8.938;2024-01-06T01:05:51;24.77;;;15.15;;
26690;SDS011;14307;51.718;8.938;2024-01-06T01:08:17;23.27;;;16.27;;
26690;SDS011;14307;51.718;8.938;2024-01-06T01:10:44;26.95;;;17.92;;
26690;SDS011;14307;51.718;8.938;2024-01-06T01:13:11;25.30;;;18.33;;
26690;SDS011;14307;51.718;8.938;2024-01-06T01:15:38;30.88;;;19.25;;
26690;SDS011;14307;51.718;8.938;2024-01-06T01:18:05;35.00;;;21.27;;
26690;SDS011;14307;51.718;8.938;2024-01-06T01:20:32;36.17;;;21.55;;
26690;SDS011;14307;51.718;8.938;2024-01-06T01:23:00;35.00;;;21.58;;
26690;SDS011;14307;51.718;8.938;2024-01-06T01:25:27;40.15;;;23.63;;
26690;SDS011;14307;51.718;8.938;2024-01-06T01:27:54;41.35;;;23.50;;
26690;SDS011;14307;51.718;8.938;2024-01-06T01:30:20;38.67;;;22.08;;
26690;SDS011;14307;51.718;8.938;2024-01-06T01:32:47;44.65;;;24.83;;
26690;SDS011;14307;51.718;8.938;2024-01-06T01:35:14;43.50;;;24.88;;
26690;SDS011;14307;51.718;8.938;2024-01-06T01:37:41;47.05;;;24.45;;
26690;SDS011;14307;51.718;8.938;2024-01-06T01:40:08;45.97;;;25.55;;
26690;SDS011;14307;51.718;8.938;2024-01-06T01:42:35;46.42;;;24.98;;
26690;SDS011;14307;51.718;8.938;2024-01-06T01:45:02;44.97;;;26.15;;
26690;SDS011;14307;51.718;8.938;2024-01-06T01:47:29;48.30;;;27.80;;
26690;SDS011;14307;51.718;8.938;2024-01-06T01:49:56;54.20;;;27.92;;
26690;SDS011;14307;51.718;8.938;2024-01-06T01:52:23;61.47;;;28.98;;
26690;SDS011;14307;51.718;8.938;2024-01-06T01:54:50;56.72;;;30.50;;
26690;SDS011;14307;51.718;8.938;2024-01-06T01:57:18;66.80;;;30.63;;
26690;SDS011;14307;51.718;8.938;2024-01-06T01:59:47;67.30;;;31.33;;
26690;SDS011;14307;51.718;8.938;2024-01-06T02:02:15;68.90;;;33.65;;
26690;SDS011;14307;51.718;8.938;2024-01-06T02:04:44;67.53;;;32.65;;
26690;SDS011;14307;51.718;8.938;2024-01-06T02:07:11;62.97;;;32.55;;
26690;SDS011;14307;51.718;8.938;2024-01-06T02:09:38;62.63;;;29.83;;
26690;SDS011;14307;51.718;8.938;2024-01-06T02:12:05;64.78;;;31.40;;
26690;SDS011;14307;51.718;8.938;2024-01-06T02:14:32;62.95;;;30.35;;
26690;SDS011;14307;51.718;8.938;2024-01-06T02:16:59;54.88;;;28.23;;
26690;SDS011;14307;51.718;8.938;2024-01-06T02:19:25;56.80;;;27.50;;
26690;SDS011;14307;51.718;8.938;2024-01-06T02:21:53;52.17;;;27.05;;
26690;SDS011;14307;51.718;8.938;2024-01-06T02:24:20;50.63;;;26.10;;
26690;SDS011;14307;51.718;8.938;2024-01-06T02:26:47;58.25;;;28.88;;
26690;SDS011;14307;51.718;8.938;2024-01-06T02:29:15;56.95;;;29.40;;
26690;SDS011;14307;51.718;8.938;2024-01-06T02:31:42;52.22;;;27.70;;
26690;SDS011;14307;51.718;8.938;2024-01-06T02:34:08;51.40;;;27.10;;
26690;SDS011;14307;51.718;8.938;2024-01-06T02:36:35;54.28;;;27.90;;
26690;SDS011;14307;51.718;8.938;2024-01-06T02:39:02;57.95;;;28.23;;
26690;SDS011;14307;51.718;8.938;2024-01-06T02:41:29;54.50;;;28.00;;
26690;SDS011;14307;51.718;8.938;2024-01-06T02:43:56;47.10;;;26.92;;
26690;SDS011;14307;51.718;8.938;2024-01-06T02:46:22;40.58;;;23.63;;
26690;SDS011;14307;51.718;8.938;2024-01-06T02:48:49;30.80;;;19.02;;
26690;SDS011;14307;51.718;8.938;2024-01-06T02:51:16;30.65;;;19.55;;
26690;SDS011;14307;51.718;8.938;2024-01-06T02:53:43;33.42;;;19.77;;
26690;SDS011;14307;51.718;8.938;2024-01-06T02:56:10;36.42;;;20.63;;
26690;SDS011;14307;51.718;8.938;2024-01-06T02:58:38;26.50;;;17.60;;
26690;SDS011;14307;51.718;8.938;2024-01-06T03:01:05;26.38;;;15.75;;
26690;SDS011;14307;51.718;8.938;2024-01-06T03:03:32;26.60;;;15.88;;
26690;SDS011;14307;51.718;8.938;2024-01-06T03:05:59;23.25;;;14.93;;
26690;SDS011;14307;51.718;8.938;2024-01-06T03:08:26;24.33;;;14.60;;
26690;SDS011;14307;51.718;8.938;2024-01-06T03:10:53;23.88;;;15.55;;
26690;SDS011;14307;51.718;8.938;2024-01-06T03:13:20;24.17;;;14.00;;
26690;SDS011;14307;51.718;8.938;2024-01-06T03:15:47;25.73;;;15.20;;
26690;SDS011;14307;51.718;8.938;2024-01-06T03:18:14;22.88;;;14.32;;
26690;SDS011;14307;51.718;8.938;2024-01-06T03:20:41;24.27;;;14.50;;
26690;SDS011;14307;51.718;8.938;2024-01-06T03:23:08;22.60;;;13.68;;
26690;SDS011;14307;51.718;8.938;2024-01-06T03:25:34;25.23;;;14.60;;
26690;SDS011;14307;51.718;8.938;2024-01-06T03:28:01;29.35;;;16.67;;
26690;SDS011;14307;51.718;8.938;2024-01-06T03:30:28;24.92;;;15.88;;
26690;SDS011;14307;51.718;8.938;2024-01-06T03:32:55;20.65;;;14.65;;
26690;SDS011;14307;51.718;8.938;2024-01-06T03:35:22;22.98;;;15.23;;
26690;SDS011;14307;51.718;8.938;2024-01-06T03:37:49;26.52;;;16.15;;
26690;SDS011;14307;51.718;8.938;2024-01-06T03:40:16;23.90;;;15.68;;
26690;SDS011;14307;51.718;8.938;2024-01-06T03:42:43;26.60;;;17.05;;
26690;SDS011;14307;51.718;8.938;2024-01-06T03:45:10;22.33;;;15.93;;
26690;SDS011;14307;51.718;8.938;2024-01-06T03:47:36;28.50;;;17.08;;
26690;SDS011;14307;51.718;8.938;2024-01-06T03:50:04;26.10;;;17.25;;
26690;SDS011;14307;51.718;8.938;2024-01-06T03:52:31;20.77;;;16.10;;
26690;SDS011;14307;51.718;8.938;2024-01-06T03:54:58;22.80;;;16.50;;
26690;SDS011;14307;51.718;8.938;2024-01-06T03:57:25;23.13;;;16.83;;
26690;SDS011;14307;51.718;8.938;2024-01-06T03:59:52;22.35;;;17.63;;
26690;SDS011;14307;51.718;8.938;2024-01-06T04:02:19;22.63;;;18.08;;
26690;SDS011;14307;51.718;8.938;2024-01-06T04:04:46;27.02;;;18.98;;
26690;SDS011;14307;51.718;8.938;2024-01-06T04:07:12;23.00;;;19.17;;
26690;SDS011;14307;51.718;8.938;2024-01-06T04:09:41;27.08;;;21.35;;
26690;SDS011;14307;51.718;8.938;2024-01-06T04:12:09;24.58;;;19.20;;
26690;SDS011;14307;51.718;8.938;2024-01-06T04:14:36;25.95;;;19.80;;
26690;SDS011;14307;51.718;8.938;2024-01-06T04:17:03;29.02;;;21.25;;
26690;SDS011;14307;51.718;8.938;2024-01-06T04:19:29;29.98;;;20.63;;
26690;SDS011;14307;51.718;8.938;2024-01-06T04:21:57;28.95;;;20.90;;
26690;SDS011;14307;51.718;8.938;2024-01-06T04:24:24;31.35;;;20.63;;
26690;SDS011;14307;51.718;8.938;2024-01-06T04:26:50;29.63;;;21.27;;
26690;SDS011;14307;51.718;8.938;2024-01-06T04:29:17;32.55;;;22.27;;
26690;SDS011;14307;51.718;8.938;2024-01-06T04:31:44;30.20;;;22.02;;
26690;SDS011;14307;51.718;8.938;2024-01-06T04:34:11;31.42;;;22.02;;
26690;SDS011;14307;51.718;8.938;2024-01-06T04:36:38;31.23;;;22.30;;
26690;SDS011;14307;51.718;8.938;2024-01-06T04:39:06;30.17;;;22.48;;
26690;SDS011;14307;51.718;8.938;2024-01-06T04:41:33;36.97;;;22.65;;
26690;SDS011;14307;51.718;8.938;2024-01-06T04:43:59;33.72;;;22.15;;
26690;SDS011;14307;51.718;8.938;2024-01-06T04:46:26;40.10;;;23.13;;
26690;SDS011;14307;51.718;8.938;2024-01-06T04:48:53;35.17;;;22.75;;
26690;SDS011;14307;51.718;8.938;2024-01-06T04:51:20;33.92;;;22.98;;
26690;SDS011;14307;51.718;8.938;2024-01-06T04:53:47;34.17;;;23.02;;
26690;SDS011;14307;51.718;8.938;2024-01-06T04:56:13;34.25;;;23.20;;
26690;SDS011;14307;51.718;8.938;2024-01-06T04:58:40;37.60;;;22.63;;
26690;SDS011;14307;51.718;8.938;2024-01-06T05:01:07;31.63;;;23.58;;
26690;SDS011;14307;51.718;8.938;2024-01-06T05:03:34;31.13;;;23.45;;
26690;SDS011;14307;51.718;8.938;2024-01-06T05:06:01;34.72;;;24.13;;
26690;SDS011;14307;51.718;8.938;2024-01-06T05:08:28;33.10;;;24.23;;
26690;SDS011;14307;51.718;8.938;2024-01-06T05:10:57;41.78;;;25.23;;
26690;SDS011;14307;51.718;8.938;2024-01-06T05:13:24;35.42;;;24.77;;
26690;SDS011;14307;51.718;8.938;2024-01-06T05:15:51;31.33;;;23.80;;
26690;SDS011;14307;51.718;8.938;2024-01-06T05:18:17;35.25;;;24.80;;
26690;SDS011;14307;51.718;8.938;2024-01-06T05:20:44;37.28;;;25.25;;
26690;SDS011;14307;51.718;8.938;2024-01-06T05:23:11;34.67;;;25.75;;
26690;SDS011;14307;51.718;8.938;2024-01-06T05:25:38;35.10;;;27.02;;
26690;SDS011;14307;51.718;8.938;2024-01-06T05:28:05;32.03;;;26.48;;
26690;SDS011;14307;51.718;8.938;2024-01-06T05:30:32;37.13;;;27.42;;
26690;SDS011;14307;51.718;8.938;2024-01-06T05:32:59;36.95;;;26.60;;
26690;SDS011;14307;51.718;8.938;2024-01-06T05:35:26;34.55;;;26.98;;
26690;SDS011;14307;51.718;8.938;2024-01-06T05:37:53;37.33;;;27.00;;
26690;SDS011;14307;51.718;8.938;2024-01-06T05:40:20;39.88;;;27.70;;
26690;SDS011;14307;51.718;8.938;2024-01-06T05:42:46;34.63;;;25.58;;
26690;SDS011;14307;51.718;8.938;2024-01-06T05:45:13;39.42;;;27.02;;
26690;SDS011;14307;51.718;8.938;2024-01-06T05:47:40;41.42;;;28.52;;
26690;SDS011;14307;51.718;8.938;2024-01-06T05:50:07;42.67;;;28.42;;
26690;SDS011;14307;51.718;8.938;2024-01-06T05:52:36;38.15;;;27.15;;
26690;SDS011;14307;51.718;8.938;2024-01-06T05:55:04;37.92;;;26.10;;
26690;SDS011;14307;51.718;8.938;2024-01-06T05:57:31;42.70;;;27.00;;
26690;SDS011;14307;51.718;8.938;2024-01-06T05:59:58;44.38;;;26.52;;
26690;SDS011;14307;51.718;8.938;2024-01-06T06:02:26;49.35;;;26.85;;
26690;SDS011;14307;51.718;8.938;2024-01-06T06:04:53;47.42;;;27.05;;
26690;SDS011;14307;51.718;8.938;2024-01-06T06:07:20;50.17;;;27.48;;
26690;SDS011;14307;51.718;8.938;2024-01-06T06:09:47;49.15;;;27.60;;
26690;SDS011;14307;51.718;8.938;2024-01-06T06:12:14;47.60;;;27.15;;
26690;SDS011;14307;51.718;8.938;2024-01-06T06:14:42;55.78;;;29.13;;
26690;SDS011;14307;51.718;8.938;2024-01-06T06:17:08;51.88;;;28.70;;
26690;SDS011;14307;51.718;8.938;2024-01-06T06:19:35;62.85;;;31.58;;
26690;SDS011;14307;51.718;8.938;2024-01-06T06:22:03;56.13;;;30.33;;
26690;SDS011;14307;51.718;8.938;2024-01-06T06:24:30;61.60;;;30.13;;
26690;SDS011;14307;51.718;8.938;2024-01-06T06:26:57;65.05;;;31.63;;
26690;SDS011;14307;51.718;8.938;2024-01-06T06:29:24;57.95;;;29.65;;
26690;SDS011;14307;51.718;8.938;2024-01-06T06:31:51;57.22;;;29.58;;
26690;SDS011;14307;51.718;8.938;2024-01-06T06:34:18;56.88;;;28.92;;
26690;SDS011;14307;51.718;8.938;2024-01-06T06:36:45;68.20;;;30.77;;
26690;SDS011;14307;51.718;8.938;2024-01-06T06:39:12;64.03;;;31.63;;
26690;SDS011;14307;51.718;8.938;2024-01-06T06:41:39;71.05;;;31.80;;
26690;SDS011;14307;51.718;8.938;2024-01-06T06:44:06;63.00;;;32.00;;
26690;SDS011;14307;51.718;8.938;2024-01-06T06:46:33;68.32;;;32.78;;
26690;SDS011;14307;51.718;8.938;2024-01-06T06:49:00;74.60;;;33.60;;
26690;SDS011;14307;51.718;8.938;2024-01-06T06:51:27;89.63;;;38.30;;
26690;SDS011;14307;51.718;8.938;2024-01-06T06:53:55;76.20;;;36.15;;
26690;SDS011;14307;51.718;8.938;2024-01-06T06:56:22;79.90;;;36.55;;
26690;SDS011;14307;51.718;8.938;2024-01-06T06:58:48;71.88;;;32.50;;
26690;SDS011;14307;51.718;8.938;2024-01-06T07:01:15;69.03;;;32.88;;
26690;SDS011;14307;51.718;8.938;2024-01-06T07:03:42;71.05;;;33.17;;
26690;SDS011;14307;51.718;8.938;2024-01-06T07:06:12;68.55;;;32.22;;
26690;SDS011;14307;51.718;8.938;2024-01-06T07:08:40;66.55;;;31.15;;
26690;SDS011;14307;51.718;8.938;2024-01-06T07:11:08;65.20;;;29.63;;
26690;SDS011;14307;51.718;8.938;2024-01-06T07:13:35;70.63;;;31.67;;
26690;SDS011;14307;51.718;8.938;2024-01-06T07:16:02;70.82;;;33.58;;
26690;SDS011;14307;51.718;8.938;2024-01-06T07:18:43;64.03;;;33.20;;
26690;SDS011;14307;51.718;8.938;2024-01-06T07:21:11;72.65;;;34.40;;
26690;SDS011;14307;51.718;8.938;2024-01-06T07:23:38;71.75;;;34.25;;
26690;SDS011;14307;51.718;8.938;2024-01-06T07:26:05;80.30;;;37.38;;
26690;SDS011;14307;51.718;8.938;2024-01-06T07:28:32;97.07;;;44.05;;
26690;SDS011;14307;51.718;8.938;2024-01-06T07:31:00;95.15;;;43.97;;
26690;SDS011;14307;51.718;8.938;2024-01-06T07:33:27;76.35;;;37.75;;
26690;SDS011;14307;51.718;8.938;2024-01-06T07:35:57;79.57;;;38.17;;
26690;SDS011;14307;51.718;8.938;2024-01-06T07:38:23;70.25;;;34.28;;
26690;SDS011;14307;51.718;8.938;2024-01-06T07:40:50;83.03;;;38.35;;
26690;SDS011;14307;51.718;8.938;2024-01-06T07:43:17;81.25;;;37.03;;
26690;SDS011;14307;51.718;8.938;2024-01-06T07:45:44;79.25;;;35.75;;
26690;SDS011;14307;51.718;8.938;2024-01-06T07:48:11;87.55;;;37.45;;
26690;SDS011;14307;51.718;8.938;2024-01-06T07:50:38;82.55;;;34.72;;
26690;SDS011;14307;51.718;8.938;2024-01-06T07:53:05;85.95;;;34.45;;
26690;SDS011;14307;51.718;8.938;2024-01-06T07:55:31;85.90;;;36.42;;
26690;SDS011;14307;51.718;8.938;2024-01-06T07:57:58;86.25;;;34.72;;
26690;SDS011;14307;51.718;8.938;2024-01-06T08:00:25;100.22;;;39.92;;
26690;SDS011;14307;51.718;8.938;2024-01-06T08:02:52;102.10;;;38.63;;
26690;SDS011;14307;51.718;8.938;2024-01-06T08:05:19;100.07;;;40.38;;
26690;SDS011;14307;51.718;8.938;2024-01-06T08:07:46;87.90;;;37.95;;
26690;SDS011;14307;51.718;8.938;2024-01-06T08:10:12;104.68;;;38.45;;
26690;SDS011;14307;51.718;8.938;2024-01-06T08:12:39;99.60;;;37.78;;
26690;SDS011;14307;51.718;8.938;2024-01-06T08:15:07;106.15;;;39.70;;
26690;SDS011;14307;51.718;8.938;2024-01-06T08:17:35;111.75;;;41.10;;
26690;SDS011;14307;51.718;8.938;2024-01-06T08:20:02;107.28;;;41.83;;
26690;SDS011;14307;51.718;8.938;2024-01-06T08:22:29;106.22;;;38.45;;
26690;SDS011;14307;51.718;8.938;2024-01-06T08:24:56;99.13;;;40.15;;
26690;SDS011;14307;51.718;8.938;2024-01-06T08:27:23;112.28;;;44.50;;
26690;SDS011;14307;51.718;8.938;2024-01-06T08:29:50;118.40;;;42.88;;
26690;SDS011;14307;51.718;8.938;2024-01-06T08:32:17;117.03;;;42.55;;
26690;SDS011;14307;51.718;8.938;2024-01-06T08:34:44;101.57;;;39.50;;
26690;SDS011;14307;51.718;8.938;2024-01-06T08:37:10;109.13;;;40.72;;
26690;SDS011;14307;51.718;8.938;2024-01-06T08:39:37;118.63;;;41.17;;
26690;SDS011;14307;51.718;8.938;2024-01-06T08:42:04;119.13;;;49.78;;
26690;SDS011;14307;51.718;8.938;2024-01-06T08:44:31;131.35;;;49.53;;
26690;SDS011;14307;51.718;8.938;2024-01-06T08:46:58;129.50;;;48.72;;
26690;SDS011;14307;51.718;8.938;2024-01-06T08:49:24;137.88;;;49.88;;
26690;SDS011;14307;51.718;8.938;2024-01-06T08:51:51;120.25;;;46.58;;
26690;SDS011;14307;51.718;8.938;2024-01-06T08:54:18;130.23;;;47.75;;
26690;SDS011;14307;51.718;8.938;2024-01-06T08:56:45;119.93;;;46.28;;
26690;SDS011;14307;51.718;8.938;2024-01-06T08:59:11;113.72;;;46.00;;
26690;SDS011;14307;51.718;8.938;2024-01-06T09:01:38;122.13;;;44.15;;
26690;SDS011;14307;51.718;8.938;2024-01-06T09:04:05;118.10;;;43.60;;
26690;SDS011;14307;51.718;8.938;2024-01-06T09:06:33;121.00;;;50.33;;
26690;SDS011;14307;51.718;8.938;2024-01-06T09:09:00;114.18;;;46.03;;
26690;SDS011;14307;51.718;8.938;2024-01-06T09:11:27;108.00;;;43.55;;
26690;SDS011;14307;51.718;8.938;2024-01-06T09:13:53;110.78;;;43.88;;
26690;SDS011;14307;51.718;8.938;2024-01-06T09:16:20;115.13;;;49.10;;
26690;SDS011;14307;51.718;8.938;2024-01-06T09:18:47;101.38;;;44.90;;
26690;SDS011;14307;51.718;8.938;2024-01-06T09:21:15;111.00;;;42.45;;
26690;SDS011;14307;51.718;8.938;2024-01-06T09:23:42;96.35;;;38.58;;
26690;SDS011;14307;51.718;8.938;2024-01-06T09:26:08;94.05;;;34.50;;
26690;SDS011;14307;51.718;8.938;2024-01-06T09:28:36;94.63;;;36.47;;
26690;SDS011;14307;51.718;8.938;2024-01-06T09:31:03;98.40;;;38.30;;
26690;SDS011;14307;51.718;8.938;2024-01-06T09:33:31;104.75;;;41.15;;
26690;SDS011;14307;51.718;8.938;2024-01-06T09:36:00;103.45;;;40.67;;
26690;SDS011;14307;51.718;8.938;2024-01-06T09:38:27;107.43;;;44.53;;
26690;SDS011;14307;51.718;8.938;2024-01-06T09:40:54;106.10;;;45.33;;
26690;SDS011;14307;51.718;8.938;2024-01-06T09:43:22;117.03;;;44.15;;
26690;SDS011;14307;51.718;8.938;2024-01-06T09:45:54;107.95;;;42.67;;
26690;SDS011;14307;51.718;8.938;2024-01-06T09:48:28;122.82;;;45.28;;
26690;SDS011;14307;51.718;8.938;2024-01-06T09:50:57;119.88;;;43.60;;
26690;SDS011;14307;51.718;8.938;2024-01-06T09:53:29;128.52;;;47.33;;
26690;SDS011;14307;51.718;8.938;2024-01-06T09:56:03;119.15;;;44.97;;
26690;SDS011;14307;51.718;8.938;2024-01-06T09:58:31;119.55;;;47.78;;
26690;SDS011;14307;51.718;8.938;2024-01-06T10:01:00;131.35;;;45.63;;
26690;SDS011;14307;51.718;8.938;2024-01-06T10:03:28;132.32;;;47.13;;
26690;SDS011;14307;51.718;8.938;2024-01-06T10:05:55;131.63;;;55.42;;
26690;SDS011;14307;51.718;8.938;2024-01-06T10:08:26;126.10;;;46.95;;
26690;SDS011;14307;51.718;8.938;2024-01-06T10:10:53;118.15;;;44.35;;
26690;SDS011;14307;51.718;8.938;2024-01-06T10:13:20;273.85;;;54.72;;
26690;SDS011;14307;51.718;8.938;2024-01-06T10:15:47;350.02;;;56.75;;
26690;SDS011;14307;51.718;8.938;2024-01-06T10:18:14;603.08;;;66.65;;
26690;SDS011;14307;51.718;8.938;2024-01-06T10:20:41;491.58;;;61.65;;
26690;SDS011;14307;51.718;8.938;2024-01-06T10:23:08;348.33;;;51.92;;
26690;SDS011;14307;51.718;8.938;2024-01-06T10:25:34;316.05;;;47.03;;
26690;SDS011;14307;51.718;8.938;2024-01-06T10:28:02;304.05;;;43.60;;
26690;SDS011;14307;51.718;8.938;2024-01-06T10:30:29;262.50;;;40.13;;
26690;SDS011;14307;51.718;8.938;2024-01-06T10:32:56;312.45;;;46.80;;
26690;SDS011;14307;51.718;8.938;2024-01-06T10:35:24;266.15;;;41.60;;
26690;SDS011;14307;51.718;8.938;2024-01-06T10:37:52;363.48;;;48.75;;
26690;SDS011;14307;51.718;8.938;2024-01-06T10:40:20;341.73;;;41.03;;
26690;SDS011;14307;51.718;8.938;2024-01-06T10:42:47;235.85;;;33.65;;
26690;SDS011;14307;51.718;8.938;2024-01-06T10:45:14;169.85;;;30.52;;
26690;SDS011;14307;51.718;8.938;2024-01-06T10:47:42;126.78;;;27.67;;
26690;SDS011;14307;51.718;8.938;2024-01-06T10:50:10;101.75;;;25.52;;
26690;SDS011;14307;51.718;8.938;2024-01-06T10:52:37;94.38;;;25.13;;
26690;SDS011;14307;51.718;8.938;2024-01-06T10:55:06;81.40;;;23.65;;
26690;SDS011;14307;51.718;8.938;2024-01-06T10:57:33;63.22;;;20.23;;
26690;SDS011;14307;51.718;8.938;2024-01-06T11:00:00;69.15;;;22.23;;
26690;SDS011;14307;51.718;8.938;2024-01-06T11:02:28;71.55;;;22.67;;
26690;SDS011;14307;51.718;8.938;2024-01-06T11:04:57;63.40;;;21.75;;
26690;SDS011;14307;51.718;8.938;2024-01-06T11:07:24;83.28;;;23.88;;
26690;SDS011;14307;51.718;8.938;2024-01-06T11:09:58;67.75;;;25.65;;
26690;SDS011;14307;51.718;8.938;2024-01-06T11:12:33;55.05;;;20.52;;
26690;SDS011;14307;51.718;8.938;2024-01-06T11:15:00;49.58;;;19.92;;
26690;SDS011;14307;51.718;8.938;2024-01-06T11:20:27;53.00;;;20.02;;
26690;SDS011;14307;51.718;8.938;2024-01-06T11:22:54;53.88;;;21.50;;
26690;SDS011;14307;51.718;8.938;2024-01-06T11:25:39;43.65;;;18.30;;
26690;SDS011;14307;51.718;8.938;2024-01-06T11:28:07;43.80;;;19.40;;
26690;SDS011;14307;51.718;8.938;2024-01-06T11:30:35;48.47;;;20.88;;
26690;SDS011;14307;51.718;8.938;2024-01-06T11:33:03;53.75;;;21.52;;
26690;SDS011;14307;51.718;8.938;2024-01-06T11:35:31;45.72;;;22.17;;
26690;SDS011;14307;51.718;8.938;2024-01-06T11:38:01;40.80;;;21.02;;
26690;SDS011;14307;51.718;8.938;2024-01-06T11:40:33;42.50;;;21.48;;
26690;SDS011;14307;51.718;8.938;2024-01-06T11:45:36;46.72;;;21.90;;
26690;SDS011;14307;51.718;8.938;2024-01-06T11:48:04;57.17;;;24.35;;
26690;SDS011;14307;51.718;8.938;2024-01-06T11:50:36;76.82;;;25.20;;
26690;SDS011;14307;51.718;8.938;2024-01-06T11:53:04;107.72;;;28.80;;
26690;SDS011;14307;51.718;8.938;2024-01-06T11:55:33;126.15;;;30.73;;
26690;SDS011;14307;51.718;8.938;2024-01-06T11:58:01;133.95;;;31.50;;
26690;SDS011;14307;51.718;8.938;2024-01-06T12:00:30;126.28;;;29.42;;
26690;SDS011;14307;51.718;8.938;2024-01-06T12:02:58;134.23;;;30.83;;
26690;SDS011;14307;51.718;8.938;2024-01-06T12:05:27;136.30;;;31.75;;
26690;SDS011;14307;51.718;8.938;2024-01-06T12:07:55;166.40;;;35.38;;
26690;SDS011;14307;51.718;8.938;2024-01-06T12:10:23;239.85;;;40.58;;
26690;SDS011;14307;51.718;8.938;2024-01-06T12:12:55;148.73;;;34.72;;
26690;SDS011;14307;51.718;8.938;2024-01-06T12:15:26;128.98;;;32.13;;
26690;SDS011;14307;51.718;8.938;2024-01-06T12:17:55;127.68;;;32.92;;
26690;SDS011;14307;51.718;8.938;2024-01-06T12:20:22;136.45;;;33.55;;
26690;SDS011;14307;51.718;8.938;2024-01-06T12:22:51;114.57;;;35.38;;
26690;SDS011;14307;51.718;8.938;2024-01-06T12:25:20;123.13;;;33.40;;
26690;SDS011;14307;51.718;8.938;2024-01-06T12:27:48;111.13;;;32.67;;
26690;SDS011;14307;51.718;8.938;2024-01-06T12:30:16;116.47;;;33.10;;
26690;SDS011;14307;51.718;8.938;2024-01-06T12:32:46;110.32;;;34.08;;
26690;SDS011;14307;51.718;8.938;2024-01-06T12:35:16;116.18;;;32.50;;
26690;SDS011;14307;51.718;8.938;2024-01-06T12:37:43;141.95;;;35.70;;
26690;SDS011;14307;51.718;8.938;2024-01-06T12:40:14;111.70;;;33.22;;
26690;SDS011;14307;51.718;8.938;2024-01-06T12:42:43;144.27;;;36.30;;
26690;SDS011;14307;51.718;8.938;2024-01-06T12:45:11;116.43;;;30.25;;
26690;SDS011;14307;51.718;8.938;2024-01-06T12:47:39;175.80;;;36.10;;
26690;SDS011;14307;51.718;8.938;2024-01-06T12:50:06;321.00;;;47.70;;
26690;SDS011;14307;51.718;8.938;2024-01-06T12:52:35;376.67;;;50.00;;
26690;SDS011;14307;51.718;8.938;2024-01-06T12:55:05;396.70;;;54.67;;
26690;SDS011;14307;51.718;8.938;2024-01-06T12:57:33;338.25;;;45.78;;
26690;SDS011;14307;51.718;8.938;2024-01-06T13:00:00;332.88;;;49.33;;
26690;SDS011;14307;51.718;8.938;2024-01-06T13:02:27;327.52;;;47.70;;
26690;SDS011;14307;51.718;8.938;2024-01-06T13:04:54;273.23;;;39.53;;
26690;SDS011;14307;51.718;8.938;2024-01-06T13:07:21;359.23;;;47.00;;
26690;SDS011;14307;51.718;8.938;2024-01-06T13:09:48;250.68;;;38.05;;
26690;SDS011;14307;51.718;8.938;2024-01-06T13:12:16;346.20;;;42.33;;
26690;SDS011;14307;51.718;8.938;2024-01-06T13:14:44;288.15;;;39.47;;
26690;SDS011;14307;51.718;8.938;2024-01-06T13:17:13;426.77;;;56.42;;
26690;SDS011;14307;51.718;8.938;2024-01-06T13:19:42;456.17;;;52.58;;
26690;SDS011;14307;51.718;8.938;2024-01-06T13:22:10;518.70;;;51.95;;
26690;SDS011;14307;51.718;8.938;2024-01-06T13:24:37;602.10;;;60.92;;
26690;SDS011;14307;51.718;8.938;2024-01-06T13:27:04;558.25;;;56.30;;
26690;SDS011;14307;51.718;8.938;2024-01-06T13:29:31;564.85;;;59.47;;
26690;SDS011;14307;51.718;8.938;2024-01-06T13:31:58;574.42;;;55.40;;
26690;SDS011;14307;51.718;8.938;2024-01-06T13:34:26;613.50;;;68.13;;
26690;SDS011;14307;51.718;8.938;2024-01-06T13:36:53;569.58;;;58.22;;
26690;SDS011;14307;51.718;8.938;2024-01-06T13:39:23;641.72;;;62.30;;
26690;SDS011;14307;51.718;8.938;2024-01-06T13:41:50;624.83;;;59.25;;
26690;SDS011;14307;51.718;8.938;2024-01-06T13:44:17;528.60;;;54.25;;
26690;SDS011;14307;51.718;8.938;2024-01-06T13:46:43;622.60;;;70.97;;
26690;SDS011;14307;51.718;8.938;2024-01-06T13:49:11;533.03;;;56.88;;
26690;SDS011;14307;51.718;8.938;2024-01-06T13:51:39;448.40;;;58.20;;
26690;SDS011;14307;51.718;8.938;2024-01-06T13:54:06;610.10;;;67.20;;
26690;SDS011;14307;51.718;8.938;2024-01-06T13:56:33;499.88;;;60.60;;
26690;SDS011;14307;51.718;8.938;2024-01-06T13:59:00;538.58;;;63.85;;
26690;SDS011;14307;51.718;8.938;2024-01-06T14:01:27;453.15;;;55.05;;
26690;SDS011;14307;51.718;8.938;2024-01-06T14:03:54;614.95;;;68.18;;
26690;SDS011;14307;51.718;8.938;2024-01-06T14:06:25;536.15;;;51.08;;
26690;SDS011;14307;51.718;8.938;2024-01-06T14:08:56;396.60;;;46.20;;
26690;SDS011;14307;51.718;8.938;2024-01-06T14:11:23;461.00;;;47.78;;
26690;SDS011;14307;51.718;8.938;2024-01-06T14:13:54;480.98;;;49.40;;
26690;SDS011;14307;51.718;8.938;2024-01-06T14:16:22;549.58;;;58.65;;
26690;SDS011;14307;51.718;8.938;2024-01-06T14:18:49;517.42;;;59.88;;
26690;SDS011;14307;51.718;8.938;2024-01-06T14:21:16;361.05;;;45.30;;
26690;SDS011;14307;51.718;8.938;2024-01-06T14:23:45;246.52;;;33.75;;